Time,TemperatureF,DewpointF,PressureIn,WindDirection,WindDirectionDegrees,WindSpeedMPH,WindSpeedGustMPH,Humidity,HourlyPrecipIn,Conditions,Clouds,dailyrainin,SolarRadiationWatts/m^2,SoftwareType,DateUTC
2014-07-10 00:03:00,53.0,49.0,-100.00,South,177,2.0,4.0,86,0.00,,,0.05,1.000000,,2014-07-10 04:03:00,
2014-07-10 00:13:00,49.0,48.0,-100.00,SSE,147,1.0,3.0,95,0.00,,,0.05,1.000000,,2014-07-10 04:13:00,
2014-07-10 00:43:00,49.0,48.0,-100.00,SSE,147,1.0,3.0,95,0.00,,,0.05,1.000000,,2014-07-10 04:43:00,
2014-07-10 00:53:00,49.0,48.0,-100.00,SSE,147,1.0,3.0,95,0.00,,,0.05,1.000000,,2014-07-10 04:53:00,
2014-07-10 01:03:00,49.0,48.0,-100.00,SSE,147,1.0,3.0,95,0.00,,,0.05,1.000000,,2014-07-10 05:03:00,
2014-07-10 01:52:00,47.0,46.0,-100.00,WSW,255,2.0,2.0,97,0.00,,,0.05,1.000000,,2014-07-10 05:52:00,
2014-07-10 02:01:00,47.0,46.0,-100.00,WSW,255,2.0,2.0,97,0.00,,,0.05,1.000000,,2014-07-10 06:01:00,
2014-07-10 02:42:00,47.0,46.0,-100.00,South,176,1.0,2.0,98,0.00,,,0.05,1.000000,,2014-07-10 06:42:00,
2014-07-10 02:52:00,47.0,46.0,-100.00,South,176,1.0,2.0,98,0.00,,,0.05,1.000000,,2014-07-10 06:52:00,
2014-07-10 03:02:00,47.0,46.0,-100.00,South,176,1.0,2.0,98,0.00,,,0.05,1.000000,,2014-07-10 07:02:00,
2014-07-10 03:11:00,47.0,46.0,-100.00,South,176,1.0,2.0,98,0.00,,,0.05,1.000000,,2014-07-10 07:11:00,
2014-07-10 03:42:00,45.0,44.0,-100.00,South,172,1.0,3.0,98,0.00,,,0.04,1.000000,,2014-07-10 07:42:00,
2014-07-10 03:52:00,45.0,44.0,-100.00,South,172,1.0,3.0,98,0.00,,,0.04,1.000000,,2014-07-10 07:52:00,
2014-07-10 04:11:00,45.0,44.0,-100.00,South,172,1.0,3.0,98,0.00,,,0.04,1.000000,,2014-07-10 08:11:00,
2014-07-10 04:42:00,45.0,45.0,-100.00,SSE,160,2.0,4.0,99,0.00,,,0.03,1.000000,,2014-07-10 08:42:00,
2014-07-10 04:52:00,45.0,45.0,-100.00,SSE,160,2.0,4.0,99,0.00,,,0.03,1.000000,,2014-07-10 08:52:00,
2014-07-10 05:02:00,45.0,45.0,-100.00,SSE,160,2.0,4.0,99,0.00,,,0.03,1.000000,,2014-07-10 09:02:00,
2014-07-10 05:11:00,45.0,45.0,-100.00,SSE,160,2.0,4.0,99,0.00,,,0.03,1.000000,,2014-07-10 09:11:00,
2014-07-10 05:43:00,44.0,43.0,-100.00,South,175,2.0,2.0,98,0.00,,,0.03,1.000000,,2014-07-10 09:43:00,
2014-07-10 05:54:00,44.0,43.0,-100.00,South,175,2.0,2.0,98,0.00,,,0.03,1.000000,,2014-07-10 09:54:00,
2014-07-10 06:03:00,44.0,43.0,-100.00,South,175,2.0,2.0,98,0.00,,,0.03,1.000000,,2014-07-10 10:03:00,
2014-07-10 06:42:00,45.0,45.0,-100.00,SSE,162,3.0,5.0,99,0.00,,,0.02,2.000000,,2014-07-10 10:42:00,
2014-07-10 06:54:00,45.0,45.0,-100.00,SSE,162,3.0,5.0,99,0.00,,,0.02,2.000000,,2014-07-10 10:54:00,
2014-07-10 07:12:00,45.0,45.0,-100.00,SSE,162,3.0,5.0,99,0.00,,,0.02,2.000000,,2014-07-10 11:12:00,
2014-07-10 10:12:00,62.0,53.0,-100.00,South,181,4.0,6.0,73,0.00,,,0.00,364.000000,,2014-07-10 14:12:00,
2014-07-10 10:52:00,69.0,54.0,-100.00,SSW,199,4.0,9.0,59,0.00,,,0.00,550.000000,,2014-07-10 14:52:00,
2014-07-10 12:03:00,74.0,54.0,-100.00,South,183,4.0,7.0,49,0.00,,,0.00,719.000000,,2014-07-10 16:03:00,
2014-07-10 12:13:00,76.0,49.0,-100.00,North,7,3.0,9.0,38,0.00,,,0.00,848.000000,,2014-07-10 16:13:00,
2014-07-10 12:54:00,76.0,49.0,-100.00,North,7,3.0,9.0,38,0.00,,,0.00,848.000000,,2014-07-10 16:54:00,
2014-07-10 13:03:00,76.0,49.0,-100.00,North,7,3.0,9.0,38,0.00,,,0.00,848.000000,,2014-07-10 17:03:00,
2014-07-10 13:44:00,78.0,50.0,-100.00,SW,235,3.0,8.0,37,0.00,,,0.00,958.000000,,2014-07-10 17:44:00,
2014-07-10 13:53:00,78.0,50.0,-100.00,SW,235,3.0,8.0,37,0.00,,,0.00,958.000000,,2014-07-10 17:53:00,
2014-07-10 14:12:00,78.0,50.0,-100.00,SW,235,3.0,8.0,37,0.00,,,0.00,958.000000,,2014-07-10 18:12:00,
2014-07-10 14:42:00,80.0,51.0,-100.00,SW,221,5.0,12.0,37,0.00,,,0.00,948.000000,,2014-07-10 18:42:00,
2014-07-10 14:52:00,80.0,51.0,-100.00,SW,221,5.0,12.0,37,0.00,,,0.00,948.000000,,2014-07-10 18:52:00,
2014-07-10 15:02:00,80.0,51.0,-100.00,SW,221,5.0,12.0,37,0.00,,,0.00,948.000000,,2014-07-10 19:02:00,
2014-07-10 15:12:00,80.0,51.0,-100.00,SW,221,5.0,12.0,37,0.00,,,0.00,948.000000,,2014-07-10 19:12:00,
2014-07-10 15:42:00,79.0,51.0,-100.00,West,261,4.0,12.0,38,0.00,,,0.00,934.000000,,2014-07-10 19:42:00,
2014-07-10 15:53:00,79.0,51.0,-100.00,West,261,4.0,12.0,38,0.00,,,0.00,934.000000,,2014-07-10 19:53:00,
2014-07-10 16:12:00,79.0,51.0,-100.00,West,261,4.0,12.0,38,0.00,,,0.00,934.000000,,2014-07-10 20:12:00,
2014-07-10 16:43:00,81.0,53.0,-100.00,SSW,203,4.0,9.0,38,0.00,,,0.00,688.000000,,2014-07-10 20:43:00,
2014-07-10 17:02:00,81.0,53.0,-100.00,SSW,203,4.0,9.0,38,0.00,,,0.00,688.000000,,2014-07-10 21:02:00,
2014-07-10 17:12:00,81.0,53.0,-100.00,SSW,203,4.0,9.0,38,0.00,,,0.00,688.000000,,2014-07-10 21:12:00,
2014-07-10 17:44:00,78.0,54.0,-100.00,South,186,4.0,11.0,43,0.00,,,0.00,631.000000,,2014-07-10 21:44:00,
2014-07-10 17:54:00,78.0,54.0,-100.00,South,186,4.0,11.0,43,0.00,,,0.00,631.000000,,2014-07-10 21:54:00,
2014-07-10 18:03:00,78.0,54.0,-100.00,South,186,4.0,11.0,43,0.00,,,0.00,631.000000,,2014-07-10 22:03:00,
2014-07-10 18:43:00,79.0,54.0,-100.00,SSW,206,4.0,8.0,42,0.00,,,0.00,438.000000,,2014-07-10 22:43:00,
2014-07-10 18:53:00,79.0,54.0,-100.00,SSW,206,4.0,8.0,42,0.00,,,0.00,438.000000,,2014-07-10 22:53:00,
2014-07-10 19:12:00,79.0,54.0,-100.00,SSW,206,4.0,8.0,42,0.00,,,0.00,438.000000,,2014-07-10 23:12:00,
2014-07-10 19:42:00,80.0,55.0,-100.00,South,173,6.0,9.0,42,0.00,,,0.00,481.000000,,2014-07-10 23:42:00,
2014-07-10 20:02:00,80.0,55.0,-100.00,South,173,6.0,9.0,42,0.00,,,0.00,481.000000,,2014-07-11 00:02:00,
2014-07-10 20:12:00,80.0,55.0,-100.00,South,173,6.0,9.0,42,0.00,,,0.00,481.000000,,2014-07-11 00:12:00,
2014-07-10 20:52:00,76.0,55.0,-100.00,NNE,20,4.0,9.0,49,0.00,,,0.00,308.000000,,2014-07-11 00:52:00,
2014-07-10 21:12:00,76.0,55.0,-100.00,NNE,20,4.0,9.0,49,0.00,,,0.00,308.000000,,2014-07-11 01:12:00,
2014-07-10 21:42:00,70.0,54.0,-100.00,North,6,3.0,8.0,57,0.00,,,0.00,140.000000,,2014-07-11 01:42:00,
2014-07-10 21:52:00,70.0,54.0,-100.00,North,6,3.0,8.0,57,0.00,,,0.00,140.000000,,2014-07-11 01:52:00,
2014-07-10 22:02:00,70.0,54.0,-100.00,North,6,3.0,8.0,57,0.00,,,0.00,140.000000,,2014-07-11 02:02:00,
2014-07-10 22:42:00,62.0,56.0,-100.00,North,-999,0.0,3.0,80,0.00,,,0.00,11.000000,,2014-07-11 02:42:00,
2014-07-10 23:12:00,62.0,56.0,-100.00,North,-999,0.0,3.0,80,0.00,,,0.00,11.000000,,2014-07-11 03:12:00,